Time;durP1;ratioP1;P1;durP2;ratioP2;P2;SDS_P1;SDS_P2;PMS_P1;PMS_P2;Temp;Humidity;BMP_temperature;BMP_pressure;BME280_temperature;BME280_humidity;BME280_pressure;Samples;Min_cycle;Max_cycle;Signal;HPM_P1;HPM_P2
2023/04/17 00:02:43;;;;;;;23.75;17.13;;;10.30;99.90;;;;;;5040415;28;20213;-78
2023/04/17 00:05:32;;;;;;;21.35;16.52;;;10.30;99.90;;;;;;5058461;28;20252;-77
2023/04/17 00:08:21;;;;;;;24.15;18.13;;;10.30;99.90;;;;;;5065205;28;20225;-76
2023/04/17 00:11:10;;;;;;;21.33;17.15;;;10.10;99.90;;;;;;5054129;28;20229;-80
2023/04/17 00:13:59;;;;;;;22.58;17.73;;;10.10;99.90;;;;;;5032728;28;20232;-79
2023/04/17 00:16:48;;;;;;;22.77;18.23;;;10.10;99.90;;;;;;5046948;28;20356;-78
2023/04/17 00:19:38;;;;;;;24.17;18.17;;;10.10;99.90;;;;;;5050898;28;20311;-79
2023/04/17 00:22:27;;;;;;;23.02;16.92;;;10.10;99.90;;;;;;5042091;28;21371;-78
2023/04/17 00:25:15;;;;;;;22.50;17.33;;;10.20;99.90;;;;;;5043499;28;20747;-78
2023/04/17 00:28:05;;;;;;;21.90;17.33;;;10.20;99.90;;;;;;5037501;28;21061;-78
2023/04/17 00:30:54;;;;;;;24.00;16.85;;;10.10;99.90;;;;;;5023933;28;20221;-77
2023/04/17 00:33:44;;;;;;;24.23;18.13;;;10.00;99.90;;;;;;5036163;28;20238;-77
2023/04/17 00:36:35;;;;;;;23.58;17.33;;;9.90;99.90;;;;;;5019913;28;20353;-78
2023/04/17 00:39:23;;;;;;;20.77;17.17;;;10.10;99.90;;;;;;5021329;28;20243;-75
2023/04/17 00:42:12;;;;;;;20.17;17.08;;;10.20;99.90;;;;;;5024580;28;20224;-73
2023/04/17 00:45:01;;;;;;;24.60;17.67;;;10.10;99.90;;;;;;5031501;28;20235;-73
2023/04/17 00:47:51;;;;;;;21.50;17.10;;;10.10;99.90;;;;;;5024106;28;20230;-73
2023/04/17 00:50:41;;;;;;;22.83;17.05;;;10.10;99.90;;;;;;5026467;28;20229;-73
2023/04/17 00:53:32;;;;;;;23.83;17.55;;;10.00;99.90;;;;;;5018816;28;20285;-75
2023/04/17 00:56:22;;;;;;;22.95;17.27;;;10.00;99.90;;;;;;5025211;28;20242;-76
2023/04/17 00:59:12;;;;;;;21.48;17.17;;;10.10;99.90;;;;;;5026003;28;20704;-76
2023/04/17 01:02:02;;;;;;;23.45;18.38;;;10.10;99.90;;;;;;5029849;28;20307;-74
2023/04/17 01:04:51;;;;;;;22.55;17.73;;;10.00;99.90;;;;;;5031085;28;20263;-73
2023/04/17 01:07:41;;;;;;;21.60;17.00;;;10.00;99.90;;;;;;5029801;28;20229;-74
2023/04/17 01:10:31;;;;;;;22.08;17.30;;;10.10;99.90;;;;;;5040607;28;20248;-74
2023/04/17 01:13:20;;;;;;;20.17;16.13;;;10.10;99.90;;;;;;5036096;28;20220;-75
2023/04/17 01:16:09;;;;;;;21.83;18.10;;;10.10;99.90;;;;;;5022229;28;20217;-76
2023/04/17 01:18:59;;;;;;;21.83;17.10;;;10.20;99.90;;;;;;5038763;28;20867;-75
2023/04/17 01:21:48;;;;;;;20.23;17.33;;;10.10;99.90;;;;;;5035959;28;20370;-74
2023/04/17 01:24:38;;;;;;;21.65;17.52;;;9.90;99.90;;;;;;5008815;28;20614;-75
2023/04/17 01:27:27;;;;;;;25.40;18.63;;;10.10;99.90;;;;;;4995697;28;20238;-76
2023/04/17 01:30:16;;;;;;;25.15;18.08;;;10.10;99.90;;;;;;4989001;28;20215;-76
2023/04/17 01:33:26;;;;;;;24.17;18.35;;;10.10;99.90;;;;;;5008247;28;20598;-74
2023/04/17 01:36:16;;;;;;;23.70;17.58;;;10.20;99.90;;;;;;5001203;28;20313;-75
2023/04/17 01:39:06;;;;;;;23.48;17.67;;;10.20;99.90;;;;;;5017683;28;20226;-75
2023/04/17 01:41:57;;;;;;;24.17;18.55;;;10.20;99.90;;;;;;5003585;28;20717;-75
2023/04/17 01:44:45;;;;;;;21.58;17.45;;;10.20;99.90;;;;;;4996608;28;20229;-76
2023/04/17 01:47:34;;;;;;;23.65;18.83;;;10.30;99.90;;;;;;4996024;28;20225;-74
2023/04/17 01:50:23;;;;;;;25.90;20.80;;;10.30;99.90;;;;;;4998972;28;20275;-74
2023/04/17 01:53:12;;;;;;;32.85;26.65;;;10.30;99.90;;;;;;4994507;28;20602;-73
2023/04/17 01:56:01;;;;;;;33.38;27.65;;;10.20;99.90;;;;;;4995634;28;20625;-74
2023/04/17 01:58:52;;;;;;;31.77;25.52;;;10.10;99.90;;;;;;5004600;28;20226;-73
2023/04/17 02:01:40;;;;;;;22.50;18.75;;;10.40;99.90;;;;;;5003316;28;20287;-73
2023/04/17 02:04:29;;;;;;;21.48;17.60;;;10.40;99.90;;;;;;4997321;28;20729;-74
2023/04/17 02:07:18;;;;;;;21.55;17.15;;;10.40;99.90;;;;;;4998587;28;20226;-73
2023/04/17 02:10:08;;;;;;;20.38;16.92;;;10.40;99.90;;;;;;4998918;28;20230;-74
2023/04/17 02:12:57;;;;;;;21.63;16.98;;;10.40;99.90;;;;;;4995501;28;20316;-76
2023/04/17 02:15:48;;;;;;;25.67;17.90;;;10.30;99.90;;;;;;4997256;28;20227;-74
2023/04/17 02:18:37;;;;;;;23.25;18.90;;;10.10;99.90;;;;;;4997537;28;20231;-73
2023/04/17 02:21:27;;;;;;;21.58;17.60;;;10.10;99.90;;;;;;4998316;28;20226;-72
2023/04/17 02:24:17;;;;;;;25.00;17.75;;;10.20;99.90;;;;;;4992007;28;20231;-72
2023/04/17 02:27:08;;;;;;;23.08;17.42;;;10.20;99.90;;;;;;5032139;28;20233;-73
2023/04/17 02:29:57;;;;;;;22.25;17.85;;;10.20;99.90;;;;;;5041295;28;20228;-73
2023/04/17 02:32:47;;;;;;;24.83;19.08;;;10.10;99.90;;;;;;5027137;28;20413;-72
2023/04/17 02:35:36;;;;;;;23.33;17.88;;;10.10;99.90;;;;;;5041009;28;20221;-72
2023/04/17 02:38:29;;;;;;;21.65;17.75;;;10.00;99.90;;;;;;5039269;28;20275;-73
2023/04/17 02:41:17;;;;;;;20.90;16.83;;;10.10;99.90;;;;;;5040620;28;20236;-74
2023/04/17 02:44:06;;;;;;;21.85;17.60;;;10.10;99.90;;;;;;5038363;28;20240;-74
2023/04/17 02:46:55;;;;;;;23.10;18.27;;;10.20;99.90;;;;;;5037519;28;20220;-74
2023/04/17 02:49:46;;;;;;;24.27;17.90;;;10.00;99.90;;;;;;5031620;28;20808;-75
2023/04/17 02:52:35;;;;;;;23.35;17.40;;;10.00;99.90;;;;;;5013255;28;20232;-76
2023/04/17 02:55:24;;;;;;;21.92;17.65;;;10.00;99.90;;;;;;5029212;28;20232;-74
2023/04/17 02:58:13;;;;;;;21.00;16.83;;;10.00;99.90;;;;;;5024224;28;20247;-74
2023/04/17 03:01:03;;;;;;;21.83;16.73;;;10.00;99.90;;;;;;5031104;28;21024;-74
2023/04/17 03:03:56;;;;;;;22.63;18.20;;;10.00;99.90;;;;;;5040518;28;20237;-75
2023/04/17 03:06:46;;;;;;;25.55;18.00;;;10.00;99.90;;;;;;5036593;28;20216;-75
2023/04/17 03:09:35;;;;;;;23.95;17.15;;;10.00;99.90;;;;;;5019341;28;20308;-74
2023/04/17 03:12:25;;;;;;;24.05;17.83;;;10.00;99.90;;;;;;5021030;28;20704;-71
2023/04/17 03:15:14;;;;;;;23.92;17.35;;;9.90;99.90;;;;;;5038530;28;20239;-75
2023/04/17 03:18:04;;;;;;;24.52;17.55;;;10.00;99.90;;;;;;5041895;28;20221;-75
2023/04/17 03:20:54;;;;;;;24.00;18.00;;;9.90;99.90;;;;;;5019811;28;20225;-75
2023/04/17 03:23:44;;;;;;;23.05;18.33;;;9.80;99.90;;;;;;5037834;28;20217;-75
2023/04/17 03:26:33;;;;;;;22.63;17.35;;;9.80;99.90;;;;;;5020067;28;20274;-75
2023/04/17 03:29:27;;;;;;;24.40;17.42;;;9.80;99.90;;;;;;5030592;28;20251;-74
2023/04/17 03:32:16;;;;;;;23.25;17.85;;;9.70;99.90;;;;;;5025578;28;20225;-74
2023/04/17 03:35:05;;;;;;;21.25;17.33;;;9.80;99.90;;;;;;5032504;28;20221;-75
2023/04/17 03:37:55;;;;;;;22.15;17.25;;;9.80;99.90;;;;;;5045202;28;20225;-76
2023/04/17 03:40:45;;;;;;;25.02;18.23;;;9.80;99.90;;;;;;5027413;28;20228;-77
2023/04/17 03:43:34;;;;;;;24.65;18.58;;;9.70;99.90;;;;;;5033806;28;20272;-76
2023/04/17 03:46:23;;;;;;;25.80;18.13;;;9.80;99.90;;;;;;5016064;28;20997;-76
2023/04/17 03:49:13;;;;;;;21.60;16.67;;;9.80;99.90;;;;;;5025260;28;20663;-75
2023/04/17 03:52:03;;;;;;;24.17;17.60;;;9.70;99.90;;;;;;5029991;28;20234;-75
2023/04/17 03:54:53;;;;;;;22.67;17.65;;;9.90;99.90;;;;;;5017820;28;20256;-76
2023/04/17 03:57:43;;;;;;;24.38;17.90;;;9.90;99.90;;;;;;5033796;28;20225;-74
2023/04/17 04:00:32;;;;;;;27.00;18.05;;;9.80;99.90;;;;;;5020806;28;20229;-76
2023/04/17 04:03:28;;;;;;;26.48;18.10;;;9.80;99.90;;;;;;5018777;28;20243;-75
2023/04/17 04:06:19;;;;;;;26.05;18.65;;;9.80;99.90;;;;;;5037148;28;20221;-74
2023/04/17 04:09:08;;;;;;;23.88;18.10;;;9.70;99.90;;;;;;5036658;28;20234;-74
2023/04/17 04:11:58;;;;;;;26.35;18.27;;;9.80;99.90;;;;;;5022192;28;20233;-75
2023/04/17 04:14:50;;;;;;;23.88;17.50;;;9.80;99.90;;;;;;5016157;28;20907;-76
2023/04/17 04:17:39;;;;;;;23.38;17.67;;;9.90;99.90;;;;;;5000298;28;20351;-75
2023/04/17 04:20:28;;;;;;;26.05;18.50;;;9.80;99.90;;;;;;5017583;28;20488;-76
2023/04/17 04:23:29;;;;;;;26.23;17.83;;;9.70;99.90;;;;;;5011772;28;20228;-75
2023/04/17 04:26:20;;;;;;;28.77;18.08;;;9.80;99.90;;;;;;5038953;28;20698;-75
2023/04/17 04:29:13;;;;;;;24.98;17.95;;;9.80;99.90;;;;;;5010897;28;20581;-74
2023/04/17 04:32:18;;;;;;;23.73;17.85;;;9.70;99.90;;;;;;5023018;28;20249;-75
2023/04/17 04:35:10;;;;;;;25.92;18.63;;;9.80;99.90;;;;;;5025094;28;20598;-75
2023/04/17 04:38:01;;;;;;;25.38;17.55;;;9.70;99.90;;;;;;5020023;28;20220;-70
2023/04/17 04:40:52;;;;;;;27.70;18.40;;;9.70;99.90;;;;;;5028204;28;20236;-73
2023/04/17 04:43:41;;;;;;;25.13;18.48;;;9.60;99.90;;;;;;5028460;28;20328;-72
2023/04/17 04:46:30;;;;;;;23.48;17.38;;;9.70;99.90;;;;;;5028273;28;20233;-73
2023/04/17 04:49:21;;;;;;;27.50;18.52;;;9.80;99.90;;;;;;5035179;28;20217;-72
2023/04/17 04:52:09;;;;;;;25.63;17.80;;;9.70;99.90;;;;;;5044311;28;20241;-72
2023/04/17 04:54:58;;;;;;;27.05;18.73;;;9.70;99.90;;;;;;5032866;28;20331;-71
2023/04/17 04:57:47;;;;;;;22.95;17.98;;;9.80;99.90;;;;;;5025035;28;20238;-69
2023/04/17 05:00:36;;;;;;;25.52;17.88;;;9.60;99.90;;;;;;5023578;28;20670;-74
2023/04/17 05:03:25;;;;;;;25.67;18.02;;;9.60;99.90;;;;;;5021329;28;20329;-72
2023/04/17 05:06:16;;;;;;;25.23;18.05;;;9.80;99.90;;;;;;5026408;28;20253;-71
2023/04/17 05:09:09;;;;;;;25.33;18.70;;;9.90;99.90;;;;;;5003736;28;21000;-73
2023/04/17 05:11:58;;;;;;;24.73;18.35;;;9.90;99.90;;;;;;5010124;28;20599;-74
2023/04/17 05:14:47;;;;;;;21.92;16.98;;;9.90;99.90;;;;;;5038287;28;20217;-73
2023/04/17 05:17:40;;;;;;;23.10;16.63;;;10.00;99.90;;;;;;5032098;28;20692;-77
2023/04/17 05:20:30;;;;;;;24.17;18.10;;;9.80;99.90;;;;;;5037209;28;20307;-78
2023/04/17 05:23:21;;;;;;;25.95;17.30;;;9.80;99.90;;;;;;5031930;28;20742;-76
2023/04/17 05:26:11;;;;;;;21.33;16.55;;;9.90;99.90;;;;;;5023539;28;20252;-75
2023/04/17 05:29:00;;;;;;;23.95;17.50;;;9.80;99.90;;;;;;5012435;28;20213;-74
2023/04/17 05:31:51;;;;;;;23.80;18.17;;;9.90;99.90;;;;;;5047008;28;20964;-75
2023/04/17 05:34:59;;;;;;;25.60;17.50;;;9.90;99.90;;;;;;5028158;28;20232;-76
2023/04/17 05:37:50;;;;;;;24.02;16.65;;;9.80;99.90;;;;;;5032114;28;20229;-74
2023/04/17 05:40:40;;;;;;;25.45;18.52;;;10.20;99.90;;;;;;5033928;28;20737;-74
2023/04/17 05:43:30;;;;;;;23.83;17.35;;;10.30;99.90;;;;;;5033698;28;20714;-72
2023/04/17 05:46:20;;;;;;;23.08;16.83;;;10.40;99.90;;;;;;5016181;28;20225;-71
2023/04/17 05:49:09;;;;;;;24.92;17.48;;;10.30;99.90;;;;;;5017253;28;20231;-71
2023/04/17 05:51:59;;;;;;;24.08;17.25;;;10.30;99.90;;;;;;5013602;28;20222;-76
2023/04/17 05:54:49;;;;;;;22.38;17.50;;;10.40;99.90;;;;;;5028397;28;20217;-74
2023/04/17 05:57:41;;;;;;;21.42;16.80;;;10.40;99.90;;;;;;5017591;28;20230;-78
2023/04/17 06:00:30;;;;;;;23.30;17.05;;;10.50;99.90;;;;;;5035041;28;20221;-81
2023/04/17 06:03:25;;;;;;;26.50;17.52;;;10.60;99.90;;;;;;5037150;28;20232;-76
2023/04/17 06:06:25;;;;;;;22.73;17.58;;;10.80;99.90;;;;;;5020049;28;20236;-78
2023/04/17 06:09:14;;;;;;;23.38;18.45;;;10.90;99.90;;;;;;5038718;28;20754;-78
2023/04/17 06:12:03;;;;;;;29.67;19.23;;;10.70;99.90;;;;;;5019996;28;20846;-78
2023/04/17 06:14:56;;;;;;;28.00;19.92;;;10.70;99.90;;;;;;5035080;28;20236;-77
2023/04/17 06:17:45;;;;;;;27.67;19.40;;;10.50;99.90;;;;;;5024255;28;20230;-77
2023/04/17 06:20:34;;;;;;;25.77;19.48;;;10.50;99.90;;;;;;5017839;28;20213;-77
2023/04/17 06:23:23;;;;;;;29.65;20.67;;;10.80;99.90;;;;;;5007366;28;20225;-81
2023/04/17 06:26:12;;;;;;;31.13;20.20;;;11.00;99.90;;;;;;5032474;28;20236;-80
2023/04/17 06:29:02;;;;;;;27.10;19.25;;;11.00;99.90;;;;;;5018848;28;20292;-78
2023/04/17 06:31:54;;;;;;;24.23;19.75;;;11.00;99.90;;;;;;5008062;28;20705;-78
2023/04/17 06:34:43;;;;;;;27.85;20.05;;;10.80;99.90;;;;;;5021388;28;20228;-78
2023/04/17 06:38:00;;;;;;;25.70;19.77;;;11.00;99.90;;;;;;5020505;28;20433;-76
2023/04/17 06:40:49;;;;;;;25.45;19.92;;;11.20;99.90;;;;;;5020422;28;20235;-76
2023/04/17 06:43:40;;;;;;;30.30;20.55;;;11.20;99.90;;;;;;5011882;28;20236;-78
2023/04/17 06:46:35;;;;;;;25.85;20.35;;;11.20;99.90;;;;;;5017556;28;20312;-77
2023/04/17 06:49:26;;;;;;;27.13;20.05;;;11.10;99.90;;;;;;5022721;28;20209;-76
2023/04/17 06:52:16;;;;;;;27.23;19.25;;;11.20;99.90;;;;;;5017460;28;20241;-75
2023/04/17 06:55:07;;;;;;;27.92;19.58;;;11.70;99.90;;;;;;5005304;28;20229;-74
2023/04/17 06:57:55;;;;;;;25.42;19.30;;;11.80;99.90;;;;;;5031343;28;20588;-75
2023/04/17 07:00:44;;;;;;;26.27;18.52;;;11.80;99.90;;;;;;5022462;28;20251;-72
2023/04/17 07:03:33;;;;;;;24.60;18.60;;;11.50;99.90;;;;;;5038426;28;20217;-74
2023/04/17 07:06:25;;;;;;;28.90;19.45;;;11.60;99.90;;;;;;5031396;28;20226;-73
2023/04/17 07:09:14;;;;;;;28.35;19.27;;;11.30;99.90;;;;;;5028920;28;20221;-74
2023/04/17 07:12:03;;;;;;;23.40;18.45;;;11.60;99.90;;;;;;5027453;28;20320;-75
2023/04/17 07:14:52;;;;;;;23.60;18.67;;;11.60;99.90;;;;;;5029779;28;20392;-74
2023/04/17 07:17:41;;;;;;;24.10;18.92;;;11.50;99.90;;;;;;5035642;28;20217;-76
2023/04/17 07:20:30;;;;;;;26.33;19.95;;;11.70;99.90;;;;;;5034781;28;20233;-74
2023/04/17 07:23:21;;;;;;;27.58;19.40;;;11.60;99.90;;;;;;5032396;28;20247;-71
2023/04/17 07:26:11;;;;;;;26.35;18.48;;;11.80;99.90;;;;;;5023396;28;20230;-72
2023/04/17 07:29:00;;;;;;;29.70;20.52;;;12.00;99.90;;;;;;4994917;28;20230;-71
2023/04/17 07:31:49;;;;;;;27.65;20.40;;;12.10;99.90;;;;;;4998915;28;20284;-72
2023/04/17 07:34:40;;;;;;;32.30;21.02;;;12.10;99.90;;;;;;4996481;28;20237;-72
2023/04/17 07:37:28;;;;;;;27.15;20.58;;;12.30;99.90;;;;;;4992820;28;20252;-73
2023/04/17 07:40:19;;;;;;;23.73;19.33;;;12.30;99.90;;;;;;4993561;28;20270;-75
2023/04/17 07:43:09;;;;;;;24.50;19.95;;;12.50;99.90;;;;;;4994853;28;20230;-74
2023/04/17 07:45:58;;;;;;;24.15;19.17;;;12.30;99.90;;;;;;4992502;28;20226;-74
2023/04/17 07:48:47;;;;;;;25.25;18.25;;;12.80;99.90;;;;;;4991125;28;20756;-74
2023/04/17 07:51:37;;;;;;;24.27;18.73;;;13.00;99.90;;;;;;5000627;28;20237;-74
2023/04/17 07:54:26;;;;;;;23.30;18.67;;;13.30;99.90;;;;;;4994650;28;20803;-74
2023/04/17 07:57:20;;;;;;;23.48;18.20;;;13.10;99.90;;;;;;4997184;28;20223;-73
2023/04/17 08:00:12;;;;;;;22.38;17.67;;;13.00;99.90;;;;;;4994899;28;20234;-72
2023/04/17 08:03:02;;;;;;;23.98;18.02;;;12.70;99.90;;;;;;4992106;28;20238;-71
2023/04/17 08:05:52;;;;;;;22.58;17.70;;;12.20;99.90;;;;;;4982819;28;21320;-73
2023/04/17 08:08:46;;;;;;;22.33;17.35;;;12.50;99.90;;;;;;4985240;28;20905;-71
2023/04/17 08:11:35;;;;;;;22.50;17.50;;;12.40;99.90;;;;;;4999596;28;20226;-72
2023/04/17 08:14:44;;;;;;;21.40;16.60;;;12.70;99.90;;;;;;4998751;28;20245;-72
2023/04/17 08:17:33;;;;;;;21.17;16.77;;;13.20;99.90;;;;;;4993167;28;20226;-72
2023/04/17 08:20:23;;;;;;;20.73;17.42;;;13.50;99.90;;;;;;4992379;28;20302;-74
2023/04/17 08:23:12;;;;;;;22.90;17.08;;;12.80;99.90;;;;;;4998104;28;20246;-74
2023/04/17 08:26:01;;;;;;;21.42;17.10;;;13.10;99.90;;;;;;5006873;28;20277;-74
2023/04/17 08:28:52;;;;;;;23.55;17.95;;;12.80;99.90;;;;;;5037405;28;20240;-75
2023/04/17 08:31:42;;;;;;;21.05;17.77;;;12.60;99.90;;;;;;5026851;28;20336;-71
2023/04/17 08:34:32;;;;;;;24.60;17.98;;;12.30;99.90;;;;;;5018126;28;20225;-71
2023/04/17 08:37:21;;;;;;;22.20;17.40;;;12.30;99.90;;;;;;5042564;28;20311;-71
2023/04/17 08:40:45;;;;;;;19.95;16.90;;;12.30;99.90;;;;;;5021893;28;20794;-72
2023/04/17 08:43:37;;;;;;;21.27;17.02;;;12.50;99.90;;;;;;5028628;28;20315;-74
2023/04/17 08:46:27;;;;;;;20.90;17.20;;;12.10;99.90;;;;;;5025317;28;20236;-74
2023/04/17 08:49:17;;;;;;;22.33;16.77;;;12.20;99.90;;;;;;5035345;28;20225;-75
2023/04/17 08:52:06;;;;;;;19.63;16.38;;;12.50;99.90;;;;;;5036186;28;20240;-72
2023/04/17 08:54:55;;;;;;;20.90;16.40;;;12.40;99.90;;;;;;5027903;28;20233;-72
2023/04/17 08:57:55;;;;;;;20.15;15.95;;;12.70;99.90;;;;;;5046211;28;20241;-74
2023/04/17 09:00:45;;;;;;;19.65;14.60;;;13.40;99.90;;;;;;5027924;28;20232;-73
2023/04/17 09:03:41;;;;;;;18.60;14.10;;;14.50;99.90;;;;;;5016816;28;20222;-75
2023/04/17 09:06:51;;;;;;;18.45;14.05;;;14.30;99.90;;;;;;5018935;28;20716;-74
2023/04/17 09:09:50;;;;;;;17.65;14.05;;;14.40;99.90;;;;;;5019827;28;20225;-74
2023/04/17 09:12:40;;;;;;;15.27;13.05;;;15.00;99.90;;;;;;5025793;28;20714;-73
2023/04/17 09:15:29;;;;;;;16.17;13.43;;;15.80;99.90;;;;;;5019113;28;20237;-74
2023/04/17 09:18:25;;;;;;;17.65;13.95;;;15.30;99.90;;;;;;5054599;28;20311;-73
2023/04/17 09:21:17;;;;;;;18.60;13.80;;;15.20;99.90;;;;;;5038779;28;20370;-71
2023/04/17 09:24:08;;;;;;;22.95;14.68;;;14.90;99.90;;;;;;5036391;28;20387;-73
2023/04/17 09:27:21;;;;;;;18.02;14.02;;;15.80;99.90;;;;;;5036459;28;20253;-73
2023/04/17 09:30:10;;;;;;;17.80;14.15;;;15.20;99.90;;;;;;5035389;28;20224;-73
2023/04/17 09:33:10;;;;;;;18.70;13.90;;;14.90;99.90;;;;;;5017822;28;20228;-73
2023/04/17 09:36:20;;;;;;;15.90;13.00;;;15.40;99.90;;;;;;5005152;28;20724;-73
2023/04/17 09:39:19;;;;;;;14.43;12.15;;;16.80;99.90;;;;;;5032033;28;20232;-74
2023/04/17 09:42:09;;;;;;;16.83;12.95;;;16.20;99.90;;;;;;5041291;28;20699;-73
2023/04/17 09:44:57;;;;;;;18.67;13.07;;;16.20;99.90;;;;;;5011448;28;20245;-74
2023/04/17 09:47:47;;;;;;;19.23;12.82;;;15.80;99.90;;;;;;5032713;28;20313;-73
2023/04/17 09:50:37;;;;;;;16.20;13.20;;;15.50;99.90;;;;;;5038741;28;20217;-73
2023/04/17 09:53:26;;;;;;;17.55;12.90;;;15.20;99.90;;;;;;5013904;28;20214;-73
2023/04/17 09:56:20;;;;;;;16.52;12.10;;;14.80;99.90;;;;;;5038480;28;20235;-77
2023/04/17 09:59:09;;;;;;;15.82;12.20;;;15.20;99.90;;;;;;5027006;28;20873;-77
2023/04/17 10:01:59;;;;;;;13.70;12.00;;;15.20;99.90;;;;;;5030234;28;20715;-76
2023/04/17 10:04:48;;;;;;;16.38;12.32;;;14.70;99.90;;;;;;5022807;28;20660;-80
2023/04/17 10:07:38;;;;;;;16.10;12.13;;;14.70;99.90;;;;;;5037720;28;20757;-78
2023/04/17 10:10:30;;;;;;;16.85;12.18;;;14.60;99.90;;;;;;5035106;28;21026;-78
2023/04/17 10:13:26;;;;;;;18.70;12.10;;;14.30;99.90;;;;;;5031748;28;20233;-76
2023/04/17 10:16:15;;;;;;;15.88;12.13;;;14.00;99.90;;;;;;5010644;28;20302;-80
2023/04/17 10:19:24;;;;;;;17.13;11.95;;;14.40;99.90;;;;;;5037331;28;20248;-78
2023/04/17 10:22:32;;;;;;;16.55;12.25;;;14.40;99.90;;;;;;5015310;28;20755;-80
2023/04/17 10:25:23;;;;;;;17.08;12.43;;;14.40;99.90;;;;;;5024758;28;20228;-81
2023/04/17 10:28:12;;;;;;;15.52;11.57;;;14.40;99.90;;;;;;5000048;28;20246;-79
2023/04/17 10:31:02;;;;;;;15.52;11.65;;;14.30;99.90;;;;;;5001971;28;20276;-80
2023/04/17 10:33:53;;;;;;;18.23;12.82;;;14.40;99.90;;;;;;5002930;28;20771;-79
2023/04/17 10:36:51;;;;;;;17.13;13.52;;;14.70;99.90;;;;;;4992196;28;20230;-81
2023/04/17 10:39:51;;;;;;;16.75;12.15;;;15.10;99.90;;;;;;5003089;28;20238;-80
2023/04/17 10:42:40;;;;;;;16.85;12.85;;;14.80;99.90;;;;;;4998590;28;20301;-81
2023/04/17 10:45:52;;;;;;;17.85;12.10;;;14.60;99.90;;;;;;4998123;28;20921;-76
2023/04/17 10:48:51;;;;;;;17.38;12.25;;;14.90;99.90;;;;;;4993587;28;20226;-76
2023/04/17 10:51:41;;;;;;;14.32;11.13;;;15.90;99.90;;;;;;4977534;28;20252;-80
2023/04/17 10:54:32;;;;;;;17.35;12.20;;;15.40;99.90;;;;;;5001145;28;20230;-82
2023/04/17 10:57:52;;;;;;;15.05;11.93;;;15.60;99.90;;;;;;4997088;28;20230;-80
2023/04/17 11:00:51;;;;;;;15.40;11.13;;;16.30;99.90;;;;;;4985842;28;20706;-83
2023/04/17 11:03:42;;;;;;;16.00;10.90;;;18.10;99.90;;;;;;5011547;28;20376;-80
2023/04/17 11:06:36;;;;;;;15.32;11.30;;;18.70;99.90;;;;;;4998567;28;20318;-78
2023/04/17 11:09:27;;;;;;;12.98;11.02;;;16.90;99.90;;;;;;4995512;28;20230;-80
2023/04/17 11:12:16;;;;;;;13.48;11.00;;;16.40;99.90;;;;;;4994233;28;20554;-80
2023/04/17 11:15:06;;;;;;;13.95;11.13;;;16.30;99.90;;;;;;4998565;28;20787;-81
2023/04/17 11:17:56;;;;;;;14.35;10.70;;;16.80;99.90;;;;;;4990073;28;20234;-76
2023/04/17 11:20:46;;;;;;;11.90;10.10;;;17.40;99.90;;;;;;4994908;28;20262;-76
2023/04/17 11:23:36;;;;;;;16.00;10.75;;;17.40;99.90;;;;;;4990430;28;20229;-75
2023/04/17 11:26:25;;;;;;;12.35;9.95;;;17.00;99.90;;;;;;5013779;28;20246;-77
2023/04/17 11:29:15;;;;;;;10.68;9.57;;;16.80;99.90;;;;;;4993414;28;20230;-76
2023/04/17 11:32:04;;;;;;;59.30;12.43;;;16.10;99.90;;;;;;4993455;28;20226;-76
2023/04/17 11:34:55;;;;;;;10.07;8.27;;;16.30;99.90;;;;;;4997365;28;20644;-76
2023/04/17 11:38:05;;;;;;;11.80;9.30;;;15.70;99.90;;;;;;5001946;28;20309;-77
2023/04/17 11:40:58;;;;;;;11.32;8.60;;;15.80;99.90;;;;;;4988554;28;20242;-77
2023/04/17 11:43:47;;;;;;;11.88;9.32;;;15.80;99.90;;;;;;4992492;28;20304;-77
2023/04/17 11:46:36;;;;;;;14.25;9.40;;;15.60;99.90;;;;;;4984770;28;20714;-75
2023/04/17 11:49:26;;;;;;;9.90;7.75;;;15.70;99.90;;;;;;5002016;28;21025;-74
2023/04/17 11:52:16;;;;;;;11.10;8.50;;;15.30;99.90;;;;;;4997775;28;20368;-75
2023/04/17 11:55:09;;;;;;;10.65;7.70;;;15.30;99.90;;;;;;4986884;28;20245;-74
2023/04/17 11:58:00;;;;;;;10.82;8.02;;;15.10;99.90;;;;;;4994446;28;20688;-74
2023/04/17 12:01:05;;;;;;;14.88;8.93;;;15.40;99.90;;;;;;4996785;28;20227;-77
2023/04/17 12:03:55;;;;;;;12.38;8.00;;;15.20;99.90;;;;;;4994720;28;20249;-76
2023/04/17 12:06:44;;;;;;;13.38;8.63;;;15.50;99.90;;;;;;5002627;28;20234;-76
2023/04/17 12:09:34;;;;;;;12.27;8.50;;;15.60;99.90;;;;;;4994561;28;20702;-76
2023/04/17 12:12:23;;;;;;;11.38;7.85;;;15.60;99.90;;;;;;5002791;28;20234;-77
2023/04/17 12:15:13;;;;;;;10.38;7.88;;;15.40;99.90;;;;;;4996748;28;20315;-82
2023/04/17 12:18:04;;;;;;;10.57;8.35;;;15.00;99.90;;;;;;5007827;28;20222;-83
2023/04/17 12:20:53;;;;;;;12.18;9.23;;;15.00;99.90;;;;;;5000985;28;20814;-82
2023/04/17 12:23:42;;;;;;;10.27;7.40;;;15.20;99.90;;;;;;5004767;28;20230;-77
2023/04/17 12:26:31;;;;;;;10.38;7.97;;;15.10;99.90;;;;;;4971856;28;1251435;-77
2023/04/17 12:29:20;;;;;;;9.82;7.28;;;14.90;99.90;;;;;;5024913;28;20225;-82
2023/04/17 12:32:31;;;;;;;9.00;7.25;;;15.00;99.90;;;;;;5018801;28;20237;-79
2023/04/17 12:35:20;;;;;;;10.93;7.72;;;14.80;99.90;;;;;;5020209;28;20252;-82
2023/04/17 12:38:09;;;;;;;10.25;8.35;;;14.80;99.90;;;;;;5018200;28;20228;-82
2023/04/17 12:40:58;;;;;;;9.40;7.63;;;14.70;99.90;;;;;;5029320;28;20359;-76
2023/04/17 12:43:46;;;;;;;10.98;7.72;;;14.90;99.90;;;;;;5026850;28;20216;-77
2023/04/17 12:46:35;;;;;;;15.02;7.47;;;15.10;99.90;;;;;;5045037;28;20300;-80
2023/04/17 12:49:26;;;;;;;13.13;8.10;;;15.20;99.90;;;;;;5038403;28;20219;-77
2023/04/17 12:52:14;;;;;;;13.10;7.35;;;15.20;99.90;;;;;;5041375;28;20213;-78
2023/04/17 12:55:06;;;;;;;16.25;7.90;;;15.10;99.90;;;;;;5047208;28;20859;-76
2023/04/17 12:57:55;;;;;;;11.95;7.47;;;15.20;99.90;;;;;;5042994;28;20715;-75
2023/04/17 13:00:44;;;;;;;9.90;6.68;;;15.20;99.90;;;;;;5044968;28;20225;-77
2023/04/17 13:03:32;;;;;;;9.32;6.97;;;15.40;99.90;;;;;;5024029;28;20229;-77
2023/04/17 13:06:23;;;;;;;15.20;8.45;;;15.30;99.90;;;;;;5038119;28;20306;-77
2023/04/17 13:09:11;;;;;;;10.48;7.60;;;15.20;99.90;;;;;;5015031;28;20632;-79
2023/04/17 13:12:01;;;;;;;8.85;7.28;;;15.20;99.90;;;;;;5042429;28;20621;-78
2023/04/17 13:14:50;;;;;;;11.20;7.05;;;15.30;99.90;;;;;;5034808;28;20253;-84
2023/04/17 13:17:38;;;;;;;10.80;6.80;;;15.30;99.90;;;;;;5043813;28;20229;-76
2023/04/17 13:20:27;;;;;;;11.82;8.02;;;15.50;99.90;;;;;;5022428;28;20264;-78
2023/04/17 13:23:18;;;;;;;8.52;6.80;;;15.50;99.90;;;;;;5024973;28;20221;-78
2023/04/17 13:26:06;;;;;;;9.80;6.10;;;15.40;99.90;;;;;;5033584;28;20244;-77
2023/04/17 13:28:55;;;;;;;7.05;5.80;;;15.00;99.90;;;;;;5035071;28;20260;-84
2023/04/17 13:31:44;;;;;;;7.45;5.80;;;15.10;99.90;;;;;;5040387;28;20311;-84
2023/04/17 13:34:33;;;;;;;8.25;5.55;;;15.20;99.90;;;;;;5034100;28;20224;-83
2023/04/17 13:37:21;;;;;;;9.30;5.57;;;15.30;99.90;;;;;;5038315;28;20217;-83
2023/04/17 13:40:12;;;;;;;6.38;5.45;;;15.30;99.90;;;;;;5040790;28;20229;-82
2023/04/17 13:43:04;;;;;;;8.57;5.78;;;15.30;99.90;;;;;;5035657;28;20213;-83
2023/04/17 13:45:55;;;;;;;6.57;5.40;;;15.40;99.90;;;;;;5013470;28;20222;-83
2023/04/17 13:48:44;;;;;;;7.55;5.72;;;15.40;99.90;;;;;;5033220;28;20229;-83
2023/04/17 13:51:33;;;;;;;8.85;5.70;;;15.40;99.90;;;;;;5035793;28;20214;-84
2023/04/17 13:54:22;;;;;;;8.00;5.25;;;15.50;99.90;;;;;;5031222;28;20232;-84
2023/04/17 13:57:13;;;;;;;8.20;5.82;;;15.30;99.90;;;;;;5015091;28;20218;-83
2023/04/17 14:00:02;;;;;;;8.55;5.50;;;15.30;99.90;;;;;;5015098;28;20330;-83
2023/04/17 14:02:52;;;;;;;7.32;5.40;;;15.30;99.90;;;;;;5033477;28;20871;-84
2023/04/17 14:05:40;;;;;;;9.55;5.00;;;15.40;99.90;;;;;;5020639;28;20262;-84
2023/04/17 14:08:29;;;;;;;5.85;4.97;;;15.40;99.90;;;;;;5035208;28;20247;-83
2023/04/17 14:11:18;;;;;;;8.85;5.07;;;15.40;99.90;;;;;;5022870;28;20229;-82
2023/04/17 14:14:08;;;;;;;10.55;5.93;;;15.30;99.90;;;;;;5036571;28;20300;-83
2023/04/17 14:16:57;;;;;;;6.50;5.30;;;15.20;99.90;;;;;;5035379;28;20660;-83
2023/04/17 14:19:46;;;;;;;8.35;5.68;;;15.30;99.90;;;;;;5019434;28;20217;-84
2023/04/17 14:22:35;;;;;;;8.77;6.15;;;15.20;99.90;;;;;;5039012;28;20217;-84
2023/04/17 14:25:24;;;;;;;7.30;5.60;;;15.10;99.90;;;;;;5033297;28;20240;-84
2023/04/17 14:28:13;;;;;;;6.38;5.72;;;15.10;99.90;;;;;;5003718;28;20261;-83
2023/04/17 14:31:07;;;;;;;13.48;5.80;;;14.80;99.90;;;;;;4985099;28;20375;-84
2023/04/17 14:33:56;;;;;;;6.47;5.75;;;14.80;99.90;;;;;;4996693;28;20227;-83